createdAt,value
2019-06-10T00:00:41.976Z,4.40
2019-06-10T00:03:11.750Z,3.50
2019-06-10T00:05:41.745Z,3.98
2019-06-10T00:08:11.843Z,4.03
2019-06-10T00:10:42.244Z,4.47
2019-06-10T00:13:12.111Z,4.17
2019-06-10T00:15:41.579Z,4.50
2019-06-10T00:18:30.872Z,3.90
2019-06-10T00:20:41.162Z,4.15
2019-06-10T00:23:12.072Z,4.33
2019-06-10T00:25:41.326Z,3.72
2019-06-10T00:28:12.067Z,4.72
2019-06-10T00:30:41.311Z,3.90
2019-06-10T00:33:12.446Z,4.33
2019-06-10T00:35:41.247Z,3.95
2019-06-10T00:38:13.790Z,4.28
2019-06-10T00:40:41.673Z,4.35
2019-06-10T00:43:13.088Z,4.40
2019-06-10T00:45:41.479Z,4.00
2019-06-10T00:48:24.726Z,4.05
2019-06-10T00:50:42.966Z,4.10
2019-06-10T00:53:14.002Z,4.25
2019-06-10T00:55:42.058Z,4.30
2019-06-10T00:58:13.924Z,4.17
2019-06-10T01:00:41.835Z,4.47
2019-06-10T01:03:13.616Z,4.85
2019-06-10T01:05:42.233Z,4.95
2019-06-10T01:08:13.879Z,4.35
2019-06-10T01:10:44.160Z,4.40
2019-06-10T01:13:15.107Z,4.28
2019-06-10T01:15:43.703Z,3.90
2019-06-10T01:18:32.013Z,3.62
2019-06-10T01:20:42.943Z,4.58
2019-06-10T01:23:13.593Z,4.35
2019-06-10T01:25:42.745Z,4.47
2019-06-10T01:28:13.310Z,4.00
2019-06-10T01:30:42.275Z,4.70
2019-06-10T01:33:13.204Z,4.37
2019-06-10T01:35:41.838Z,4.00
2019-06-10T01:38:13.398Z,4.67
2019-06-10T01:40:42.345Z,4.85
2019-06-10T01:43:13.976Z,4.30
2019-06-10T01:45:42.193Z,4.72
2019-06-10T01:48:13.079Z,4.15
2019-06-10T01:50:41.534Z,4.42
2019-06-10T01:53:13.832Z,4.53
2019-06-10T01:55:41.710Z,4.53
2019-06-10T01:58:14.375Z,4.17
2019-06-10T02:01:01.293Z,4.28
2019-06-10T02:03:31.498Z,4.58
2019-06-10T02:06:01.468Z,4.65
2019-06-10T02:08:31.563Z,4.20
2019-06-10T02:11:01.158Z,4.37
2019-06-10T02:13:32.513Z,4.33
2019-06-10T02:16:02.527Z,4.35
2019-06-10T02:18:32.085Z,4.30
2019-06-10T02:21:01.386Z,4.28
2019-06-10T02:23:31.386Z,3.80
2019-06-10T02:26:01.427Z,4.62
2019-06-10T02:28:31.949Z,4.20
2019-06-10T02:31:03.007Z,4.20
2019-06-10T02:33:35.980Z,3.95
2019-06-10T02:36:04.134Z,4.28
2019-06-10T02:38:37.914Z,4.05
2019-06-10T02:41:04.139Z,4.37
2019-06-10T02:43:37.542Z,3.72
2019-06-10T02:46:04.871Z,3.87
2019-06-10T02:48:35.190Z,4.37
2019-06-10T02:51:08.328Z,4.45
2019-06-10T02:53:37.911Z,4.70
2019-06-10T02:56:07.827Z,4.28
2019-06-10T02:58:39.408Z,4.20
2019-06-10T03:01:08.613Z,4.28
2019-06-10T03:03:44.578Z,4.12
2019-06-10T03:06:09.077Z,4.00
2019-06-10T03:08:38.033Z,4.12
2019-06-10T03:11:06.706Z,4.03
2019-06-10T03:13:35.698Z,4.53
2019-06-10T03:16:13.124Z,4.10
2019-06-10T03:18:43.487Z,4.50
2019-06-10T03:21:12.525Z,4.03
2019-06-10T03:23:42.707Z,4.28
2019-06-10T03:26:12.314Z,4.08
2019-06-10T03:28:42.884Z,4.50
2019-06-10T03:31:15.150Z,4.60
2019-06-10T03:33:47.282Z,4.40
2019-06-10T03:36:12.920Z,4.30
2019-06-10T03:38:43.240Z,4.47
2019-06-10T03:41:12.594Z,4.03
2019-06-10T03:43:43.006Z,4.65
2019-06-10T03:46:13.691Z,4.80
2019-06-10T03:48:43.439Z,5.53
2019-06-10T03:51:12.758Z,4.08
2019-06-10T03:53:42.679Z,4.62
2019-06-10T03:56:12.904Z,4.22
2019-06-10T03:58:43.046Z,4.33
2019-06-10T04:01:12.515Z,3.80
2019-06-10T04:03:42.798Z,3.47
2019-06-10T04:06:12.954Z,4.33
2019-06-10T04:08:43.232Z,3.55
2019-06-10T04:11:12.483Z,3.35
2019-06-10T04:13:43.115Z,3.62
2019-06-10T04:16:12.981Z,4.05
2019-06-10T04:18:42.976Z,4.08
2019-06-10T04:21:12.839Z,3.83
2019-06-10T04:23:42.598Z,3.70
2019-06-10T04:26:12.804Z,3.90
2019-06-10T04:28:43.036Z,4.10
2019-06-10T04:31:13.140Z,3.70
2019-06-10T04:33:42.816Z,4.10
2019-06-10T04:36:13.438Z,4.15
2019-06-10T04:38:43.166Z,3.25
2019-06-10T04:41:12.802Z,3.58
2019-06-10T04:43:43.276Z,3.47
2019-06-10T04:46:12.606Z,3.37
2019-06-10T04:48:42.729Z,3.37
2019-06-10T04:51:12.960Z,3.37
2019-06-10T04:53:43.517Z,3.72
2019-06-10T04:56:12.675Z,3.87
2019-06-10T04:58:43.238Z,3.80
2019-06-10T05:01:12.377Z,3.87
2019-06-10T05:03:43.154Z,4.30
2019-06-10T05:06:12.340Z,4.10
2019-06-10T05:08:42.551Z,5.03
2019-06-10T05:11:12.885Z,4.80
2019-06-10T05:13:42.925Z,4.12
2019-06-10T05:16:12.679Z,4.00
2019-06-10T05:18:42.408Z,4.70
2019-06-10T05:21:13.159Z,5.25
2019-06-10T05:23:43.058Z,5.53
2019-06-10T05:26:13.385Z,5.08
2019-06-10T05:28:43.186Z,5.15
2019-06-10T05:31:12.997Z,4.75
2019-06-10T05:33:42.723Z,5.87
2019-06-10T05:36:13.235Z,6.17
2019-06-10T05:38:43.433Z,5.08
2019-06-10T05:41:13.840Z,4.95
2019-06-10T05:43:43.152Z,4.75
2019-06-10T05:46:13.390Z,4.90
2019-06-10T05:48:43.710Z,4.70
2019-06-10T05:51:12.739Z,4.87
2019-06-10T05:53:42.237Z,5.83
2019-06-10T05:56:12.855Z,5.30
2019-06-10T05:58:43.575Z,5.10
2019-06-10T06:01:13.164Z,4.58
2019-06-10T06:03:43.988Z,4.85
2019-06-10T06:06:12.666Z,7.83
2019-06-10T06:08:42.858Z,8.38
2019-06-10T06:11:12.652Z,7.95
2019-06-10T06:13:43.281Z,7.75
2019-06-10T06:16:12.721Z,6.90
2019-06-10T06:18:42.211Z,7.15
2019-06-10T06:21:25.302Z,7.05
2019-06-10T06:23:43.727Z,7.08
2019-06-10T06:26:16.297Z,5.85
2019-06-10T06:28:43.321Z,6.33
2019-06-10T06:31:12.816Z,4.95
2019-06-10T06:33:43.329Z,6.20
2019-06-10T06:36:12.580Z,6.03
2019-06-10T06:38:43.756Z,6.25
2019-06-10T06:41:13.771Z,5.85
2019-06-10T06:43:45.267Z,6.22
2019-06-10T06:46:13.080Z,5.35
2019-06-10T06:48:43.838Z,5.05
2019-06-10T06:51:13.202Z,4.97
2019-06-10T06:53:45.346Z,5.28
2019-06-10T06:56:12.839Z,5.40
2019-06-10T06:58:43.353Z,5.20
2019-06-10T07:01:14.720Z,5.22
2019-06-10T07:03:45.187Z,4.33
2019-06-10T07:06:14.793Z,4.33
2019-06-10T07:09:00.330Z,4.67
2019-06-10T07:11:19.085Z,4.60
2019-06-10T07:13:47.791Z,3.90
2019-06-10T07:16:16.568Z,4.10
2019-06-10T07:18:49.900Z,4.30
2019-06-10T07:21:15.505Z,3.80
2019-06-10T07:23:46.596Z,4.10
2019-06-10T07:26:14.506Z,3.70
2019-06-10T07:28:47.118Z,3.67
2019-06-10T07:31:23.228Z,3.80
2019-06-10T07:33:47.173Z,3.47
2019-06-10T07:36:14.374Z,3.10
2019-06-10T07:38:48.236Z,3.50
2019-06-10T07:41:13.269Z,3.50
2019-06-10T07:43:47.516Z,3.25
2019-06-10T07:46:13.354Z,3.58
2019-06-10T07:48:47.833Z,3.08
2019-06-10T07:51:13.316Z,3.35
2019-06-10T07:53:46.095Z,3.22
2019-06-10T07:56:13.004Z,2.55
2019-06-10T07:58:46.920Z,3.20
2019-06-10T08:01:13.128Z,3.17
2019-06-10T08:03:45.998Z,2.77
2019-06-10T08:06:12.950Z,2.25
2019-06-10T08:08:44.844Z,2.30
2019-06-10T08:11:13.719Z,2.10
2019-06-10T08:13:45.700Z,2.60
2019-06-10T08:16:13.201Z,3.10
2019-06-10T08:19:14.371Z,3.33
2019-06-10T08:21:12.489Z,2.83
2019-06-10T08:23:45.097Z,3.17
2019-06-10T08:26:12.747Z,2.27
2019-06-10T08:28:44.535Z,3.50
2019-06-10T08:31:12.508Z,2.10
2019-06-10T08:33:44.325Z,1.92
2019-06-10T08:36:13.503Z,2.08
2019-06-10T08:38:45.047Z,2.70
2019-06-10T08:41:12.491Z,2.50
2019-06-10T08:43:44.719Z,4.60
2019-06-10T08:46:13.235Z,3.67
2019-06-10T08:48:45.803Z,2.20
2019-06-10T08:51:12.749Z,1.82
2019-06-10T08:53:44.679Z,2.10
2019-06-10T08:56:12.985Z,2.40
2019-06-10T08:58:47.390Z,2.37
2019-06-10T09:01:13.414Z,2.60
2019-06-10T09:03:46.684Z,2.40
2019-06-10T09:06:13.463Z,2.15
2019-06-10T09:08:45.714Z,1.92
2019-06-10T09:11:13.102Z,2.02
2019-06-10T09:13:45.485Z,1.80
2019-06-10T09:16:18.596Z,2.10
2019-06-10T09:18:46.320Z,2.20
2019-06-10T09:21:13.229Z,2.35
2019-06-10T09:23:43.518Z,2.40
2019-06-10T09:26:12.636Z,1.92
2019-06-10T09:28:47.110Z,2.83
2019-06-10T09:31:14.221Z,2.55
2019-06-10T09:33:49.055Z,2.77
2019-06-10T09:36:13.613Z,2.47
2019-06-10T09:38:46.792Z,3.40
2019-06-10T09:41:14.291Z,2.47
2019-06-10T09:43:48.975Z,3.10
2019-06-10T09:46:14.923Z,2.17
2019-06-10T09:48:47.098Z,2.50
2019-06-10T09:51:13.893Z,1.65
2019-06-10T09:53:51.396Z,2.20
2019-06-10T09:56:12.857Z,2.00
2019-06-10T09:58:44.679Z,1.98
2019-06-10T10:01:13.271Z,2.25
2019-06-10T10:03:46.928Z,1.90
2019-06-10T10:06:15.832Z,2.20
2019-06-10T10:08:46.067Z,2.05
2019-06-10T10:11:14.239Z,2.27
2019-06-10T10:13:46.086Z,2.20
2019-06-10T10:16:13.350Z,2.37
2019-06-10T10:18:45.809Z,2.35
2019-06-10T10:21:13.050Z,2.58
2019-06-10T10:23:53.993Z,2.58
2019-06-10T10:26:13.258Z,2.60
2019-06-10T10:28:44.634Z,2.05
2019-06-10T10:31:13.437Z,1.90
2019-06-10T10:33:42.597Z,2.25
2019-06-10T10:36:14.038Z,2.20
2019-06-10T10:38:42.703Z,2.75
2019-06-10T10:41:13.289Z,2.72
2019-06-10T10:43:44.829Z,2.37
2019-06-10T10:46:13.807Z,2.30
2019-06-10T10:48:43.152Z,2.40
2019-06-10T10:51:13.192Z,2.27
2019-06-10T10:53:46.774Z,2.12
2019-06-10T10:56:13.160Z,2.17
2019-06-10T10:58:45.347Z,2.60
2019-06-10T11:01:16.009Z,2.22
2019-06-10T11:03:47.587Z,2.80
2019-06-10T11:06:15.462Z,2.98
2019-06-10T11:08:46.258Z,2.47
2019-06-10T11:11:14.866Z,2.75
2019-06-10T11:13:45.519Z,2.85
2019-06-10T11:16:14.895Z,2.70
2019-06-10T11:18:43.539Z,2.40
2019-06-10T11:21:13.229Z,3.30
2019-06-10T11:23:43.659Z,2.62
2019-06-10T11:26:13.277Z,2.75
2019-06-10T11:28:43.088Z,2.30
2019-06-10T11:31:13.796Z,3.02
2019-06-10T11:33:43.679Z,2.62
2019-06-10T11:36:13.508Z,2.85
2019-06-10T11:38:43.205Z,3.27
2019-06-10T11:41:13.386Z,3.17
2019-06-10T11:43:43.170Z,3.25
2019-06-10T11:46:13.752Z,3.02
2019-06-10T11:48:43.564Z,2.58
2019-06-10T11:51:13.263Z,3.08
2019-06-10T11:53:44.018Z,3.62
2019-06-10T11:56:13.171Z,3.47
2019-06-10T11:58:42.790Z,2.98
2019-06-10T12:01:13.205Z,3.00
2019-06-10T12:03:43.166Z,2.70
2019-06-10T12:06:13.668Z,3.00
2019-06-10T12:08:43.673Z,2.50
2019-06-10T12:11:13.757Z,2.65
2019-06-10T12:13:49.052Z,2.33
2019-06-10T12:17:14.825Z,2.25
2019-06-10T12:18:49.052Z,2.22
2019-06-10T12:21:18.545Z,2.50
2019-06-10T12:23:47.244Z,2.30
2019-06-10T12:26:15.958Z,2.50
2019-06-10T12:28:44.574Z,2.08
2019-06-10T12:32:01.271Z,2.02
2019-06-10T12:33:52.956Z,2.15
2019-06-10T12:36:20.711Z,2.25
2019-06-10T12:38:49.410Z,2.45
2019-06-10T12:41:18.112Z,2.40
2019-06-10T12:43:46.744Z,2.58
2019-06-10T12:46:16.230Z,2.20
2019-06-10T12:48:45.104Z,1.80
2019-06-10T12:51:13.892Z,1.77
2019-06-10T12:53:43.461Z,2.15
2019-06-10T12:56:14.914Z,2.47
2019-06-10T12:58:43.458Z,2.42
2019-06-10T13:01:12.556Z,2.30
2019-06-10T13:03:43.546Z,2.05
2019-06-10T13:06:13.080Z,2.17
2019-06-10T13:08:44.073Z,2.20
2019-06-10T13:11:15.057Z,2.20
2019-06-10T13:13:45.335Z,2.20
2019-06-10T13:16:14.587Z,1.75
2019-06-10T13:18:43.743Z,1.92
2019-06-10T13:21:17.241Z,1.98
2019-06-10T13:23:43.396Z,1.80
2019-06-10T13:26:16.080Z,1.80
2019-06-10T13:28:44.419Z,2.25
2019-06-10T13:31:13.971Z,2.37
2019-06-10T13:33:43.263Z,3.10
2019-06-10T13:36:13.803Z,2.10
2019-06-10T13:38:43.055Z,2.20
2019-06-10T13:41:11.848Z,2.17
2019-06-10T13:43:43.206Z,2.58
2019-06-10T13:46:11.143Z,3.72
2019-06-10T13:48:39.792Z,2.47
2019-06-10T13:51:11.799Z,2.37
2019-06-10T13:53:38.756Z,2.55
2019-06-10T13:56:32.007Z,2.15
2019-06-10T13:58:37.701Z,2.85
2019-06-10T14:01:10.110Z,2.30
2019-06-10T14:03:36.817Z,1.95
2019-06-10T14:06:23.473Z,2.15
2019-06-10T14:08:36.414Z,2.40
2019-06-10T14:11:07.627Z,2.12
2019-06-10T14:13:35.400Z,2.42
2019-06-10T14:16:05.482Z,2.35
2019-06-10T14:18:34.501Z,2.70
2019-06-10T14:21:07.314Z,2.58
2019-06-10T14:23:33.552Z,2.83
2019-06-10T14:26:04.238Z,2.72
2019-06-10T14:28:40.655Z,2.50
2019-06-10T14:31:14.917Z,2.75
2019-06-10T14:33:33.261Z,2.10
2019-06-10T14:36:22.046Z,2.55
2019-06-10T14:38:50.228Z,3.27
2019-06-10T14:41:25.687Z,2.75
2019-06-10T14:43:57.444Z,2.30
2019-06-10T14:46:26.117Z,2.27
2019-06-10T14:48:54.756Z,2.10
2019-06-10T14:51:23.764Z,2.42
2019-06-10T14:53:52.475Z,2.25
2019-06-10T14:56:23.393Z,2.00
2019-06-10T14:58:52.961Z,1.40
2019-06-10T15:01:25.392Z,1.95
2019-06-10T15:03:52.351Z,1.87
2019-06-10T15:06:22.708Z,1.90
2019-06-10T15:08:53.316Z,1.37
2019-06-10T15:11:23.425Z,1.92
2019-06-10T15:13:52.530Z,2.05
2019-06-10T15:16:23.733Z,1.90
2019-06-10T15:18:52.594Z,2.52
2019-06-10T15:21:23.195Z,1.80
2019-06-10T15:23:53.304Z,1.77
2019-06-10T15:26:21.811Z,2.25
2019-06-10T15:28:52.247Z,2.00
2019-06-10T15:31:21.237Z,2.00
2019-06-10T15:33:52.287Z,1.75
2019-06-10T15:36:20.253Z,2.22
2019-06-10T15:38:49.007Z,2.08
2019-06-10T15:41:19.919Z,1.80
2019-06-10T15:43:47.954Z,2.10
2019-06-10T15:46:17.945Z,2.40
2019-06-10T15:48:47.001Z,2.02
2019-06-10T15:51:18.863Z,2.10
2019-06-10T15:53:45.915Z,2.25
2019-06-10T15:56:24.977Z,2.58
2019-06-10T15:58:44.919Z,1.77
2019-06-10T16:01:16.693Z,2.27
2019-06-10T16:03:44.014Z,2.10
2019-06-10T16:06:13.833Z,2.62
2019-06-10T16:08:43.162Z,2.55
2019-06-10T16:11:16.325Z,2.65
2019-06-10T16:13:42.988Z,2.67
2019-06-10T16:16:12.842Z,2.90
2019-06-10T16:18:42.380Z,2.25
2019-06-10T16:21:13.277Z,2.77
2019-06-10T16:23:43.011Z,2.50
2019-06-10T16:26:13.107Z,2.45
2019-06-10T16:28:42.767Z,3.35
2019-06-10T16:31:13.512Z,2.72
2019-06-10T16:33:49.079Z,3.40
2019-06-10T16:36:14.786Z,2.60
2019-06-10T16:38:43.712Z,3.50
2019-06-10T16:41:12.458Z,2.75
2019-06-10T16:43:42.822Z,3.10
2019-06-10T16:46:11.355Z,3.37
2019-06-10T16:48:40.060Z,3.22
2019-06-10T16:51:09.109Z,3.20
2019-06-10T16:53:37.745Z,3.75
2019-06-10T16:56:06.390Z,4.53
2019-06-10T16:58:34.965Z,3.65
2019-06-10T17:01:04.355Z,3.20
2019-06-10T17:03:34.019Z,3.50
2019-06-10T17:06:02.820Z,2.95
2019-06-10T17:08:33.510Z,3.33
2019-06-10T17:11:03.355Z,3.70
2019-06-10T17:13:32.238Z,3.12
2019-06-10T17:16:03.392Z,3.60
2019-06-10T17:18:33.622Z,3.52
2019-06-10T17:21:03.958Z,3.42
2019-06-10T17:23:36.367Z,3.70
2019-06-10T17:26:03.242Z,4.08
2019-06-10T17:28:36.380Z,3.98
2019-06-10T17:31:03.746Z,4.47
2019-06-10T17:33:35.725Z,3.50
2019-06-10T17:36:03.638Z,3.90
2019-06-10T17:38:32.367Z,3.65
2019-06-10T17:41:02.967Z,3.90
2019-06-10T17:43:34.452Z,3.92
2019-06-10T17:46:03.555Z,3.72
2019-06-10T17:48:33.655Z,4.47
2019-06-10T17:51:02.767Z,4.33
2019-06-10T17:53:34.606Z,4.35
2019-06-10T17:56:03.651Z,3.55
2019-06-10T17:58:50.362Z,3.80
2019-06-10T18:01:04.224Z,3.90
2019-06-10T18:03:33.434Z,3.80
2019-06-10T18:06:02.820Z,4.00
2019-06-10T18:08:34.940Z,4.22
2019-06-10T18:11:03.256Z,4.55
2019-06-10T18:13:33.133Z,3.47
2019-06-10T18:16:02.894Z,3.98
2019-06-10T18:18:35.591Z,4.42
2019-06-10T18:21:03.417Z,4.20
2019-06-10T18:23:33.105Z,4.22
2019-06-10T18:26:03.321Z,3.60
2019-06-10T18:28:45.558Z,3.80
2019-06-10T18:31:02.833Z,3.75
2019-06-10T18:33:34.451Z,4.30
2019-06-10T18:36:01.824Z,3.95
2019-06-10T18:38:33.934Z,5.00
2019-06-10T18:41:03.183Z,3.95
2019-06-10T18:43:32.538Z,4.03
2019-06-10T18:46:03.456Z,4.05
2019-06-10T18:48:36.104Z,4.45
2019-06-10T18:51:02.442Z,3.70
2019-06-10T18:53:33.222Z,4.37
2019-06-10T18:56:01.410Z,4.10
2019-06-10T18:58:30.135Z,3.52
2019-06-10T19:01:03.968Z,3.98
2019-06-10T19:03:30.419Z,3.77
2019-06-10T19:05:59.203Z,3.72
2019-06-10T19:08:29.018Z,3.47
2019-06-10T19:10:57.889Z,3.60
2019-06-10T19:13:26.456Z,3.12
2019-06-10T19:15:55.160Z,3.30
2019-06-10T19:18:23.802Z,3.30
2019-06-10T19:20:53.329Z,2.67
2019-06-10T19:23:22.878Z,3.60
2019-06-10T19:25:52.499Z,2.92
2019-06-10T19:28:22.805Z,3.27
2019-06-10T19:30:53.448Z,3.72
2019-06-10T19:33:23.858Z,4.08
2019-06-10T19:35:53.313Z,3.80
2019-06-10T19:38:23.097Z,3.52
2019-06-10T19:40:52.374Z,3.42
2019-06-10T19:43:21.321Z,3.47
2019-06-10T19:45:49.988Z,3.95
2019-06-10T19:48:19.819Z,3.45
2019-06-10T19:50:51.360Z,3.50
2019-06-10T19:53:18.875Z,3.75
2019-06-10T19:55:47.638Z,3.52
2019-06-10T19:58:16.234Z,3.80
2019-06-10T20:00:50.934Z,3.72
2019-06-10T20:03:15.234Z,3.72
2019-06-10T20:05:46.801Z,3.47
2019-06-10T20:08:14.191Z,3.20
2019-06-10T20:10:42.828Z,3.75
2019-06-10T20:13:11.589Z,3.27
2019-06-10T20:15:41.487Z,4.05
2019-06-10T20:18:12.288Z,3.70
2019-06-10T20:20:45.649Z,4.22
2019-06-10T20:23:11.505Z,3.42
2019-06-10T20:25:41.031Z,3.75
2019-06-10T20:28:10.520Z,3.62
2019-06-10T20:30:39.100Z,3.27
2019-06-10T20:33:07.673Z,2.95
2019-06-10T20:35:37.502Z,3.52
2019-06-10T20:38:06.158Z,4.20
2019-06-10T20:40:35.794Z,3.10
2019-06-10T20:43:04.517Z,3.10
2019-06-10T20:45:33.798Z,3.45
2019-06-10T20:48:02.964Z,3.10
2019-06-10T20:50:32.492Z,3.17
2019-06-10T20:53:11.827Z,2.95
2019-06-10T20:55:40.705Z,3.65
2019-06-10T20:58:06.856Z,3.25
2019-06-10T21:00:37.225Z,3.52
2019-06-10T21:03:06.602Z,3.42
2019-06-10T21:05:35.540Z,3.35
2019-06-10T21:08:05.497Z,3.55
2019-06-10T21:10:36.890Z,3.65
2019-06-10T21:13:07.201Z,2.98
2019-06-10T21:15:40.537Z,3.15
2019-06-10T21:18:09.619Z,3.00
2019-06-10T21:20:38.255Z,3.35
2019-06-10T21:23:06.820Z,2.77
2019-06-10T21:25:35.506Z,3.45
2019-06-10T21:28:04.154Z,3.45
2019-06-10T21:30:41.315Z,3.17
2019-06-10T21:33:03.871Z,3.52
2019-06-10T21:35:34.994Z,3.87
2019-06-10T21:38:04.894Z,3.70
2019-06-10T21:40:33.574Z,3.62
2019-06-10T21:43:02.989Z,3.72
2019-06-10T21:45:32.795Z,3.60
2019-06-10T21:48:02.334Z,3.50
2019-06-10T21:50:33.298Z,3.55
2019-06-10T21:53:02.878Z,3.33
2019-06-10T21:55:33.060Z,3.50
2019-06-10T21:58:03.722Z,3.30
2019-06-10T22:00:52.790Z,3.30
2019-06-10T22:03:12.715Z,3.75
2019-06-10T22:05:43.768Z,3.42
2019-06-10T22:08:12.526Z,3.92
2019-06-10T22:10:42.442Z,3.30
2019-06-10T22:13:12.399Z,3.10
2019-06-10T22:15:42.505Z,3.77
2019-06-10T22:18:12.648Z,4.37
2019-06-10T22:20:42.885Z,3.50
2019-06-10T22:23:12.793Z,3.45
2019-06-10T22:25:41.687Z,3.62
2019-06-10T22:28:10.335Z,3.30
2019-06-10T22:30:39.016Z,3.12
2019-06-10T22:33:07.639Z,3.33
2019-06-10T22:35:36.286Z,3.22
2019-06-10T22:38:04.969Z,3.40
2019-06-10T22:40:33.612Z,3.20
2019-06-10T22:43:03.146Z,3.55
2019-06-10T22:45:32.452Z,3.62
2019-06-10T22:48:02.983Z,3.60
2019-06-10T22:50:32.316Z,3.75
2019-06-10T22:53:03.921Z,3.33
2019-06-10T22:55:32.277Z,3.42
2019-06-10T22:58:03.296Z,3.10
2019-06-10T23:00:31.702Z,3.60
2019-06-10T23:03:02.723Z,3.02
2019-06-10T23:05:33.113Z,3.25
2019-06-10T23:08:02.415Z,3.37
2019-06-10T23:10:33.685Z,4.50
2019-06-10T23:13:03.076Z,3.85
2019-06-10T23:15:32.324Z,4.00
2019-06-10T23:18:03.244Z,4.15
2019-06-10T23:20:33.175Z,3.90
2019-06-10T23:23:03.204Z,5.03
2019-06-10T23:25:32.616Z,3.40
2019-06-10T23:28:01.430Z,4.40
2019-06-10T23:30:30.117Z,3.60
2019-06-10T23:32:59.594Z,3.60
2019-06-10T23:35:28.984Z,3.33
2019-06-10T23:37:59.905Z,2.77
2019-06-10T23:40:27.958Z,3.60
2019-06-10T23:42:57.034Z,3.52
2019-06-10T23:45:25.995Z,3.60
2019-06-10T23:47:56.521Z,3.20
2019-06-10T23:50:24.955Z,3.22
2019-06-10T23:52:55.809Z,3.30
2019-06-10T23:55:23.933Z,3.42
2019-06-10T23:57:53.651Z,3.40
